首页
METAR-TAF:

METAR-TAF

机场 :

伊卢利萨特, 格陵兰

纬度: 69-14N, 经度: 051-04W, 海拔: 29米

当前天气观测

该预报发布于23分钟前的16:50 UTC
风速4节,风向西北,在西之间变化
温度 8°C
湿度 76%
气压 1008 hPa
能见度10公里或以上
少量云层高于2000英尺

METAR: BGJN 151650Z 32004KT 280V350 9999 FEW020 08/04 Q1008

时间: 15:13 (17:13 UTC)

预报

该预报发布于3小时和12分钟前的14:01 UTC
预报有效从15日的 15点(UTC)到 15日的 21点(UTC)
风速5节,风向西转西北
能见度10公里或以上
少量云层高于900英尺
多云层高于2000英尺
短暂存在
从 15日的 15点(UTC)到 15日的 21点(UTC)
散云层高于2000英尺

TAF: BGJN 151401Z 1515/1521 30005KT 9999 FEW009 BKN020 TEMPO 1515/1521 SCT020

超过4000个机场的气象观测和天气预报(METAR&TAF报告)。

可查询的气象台以黄色和红色小点在地图上表示。

将鼠标移到小点上方,可查看气象台名称。

然后点击查看天气观测和预报。

如需切换地图:点击带黑十字的绿色按钮放大地图;点击带横线的绿色按钮缩小地图;或者点击绿色箭头查看邻近地区的地图。


METAR-TAF: